createdAt,value
2018-12-20T00:00:39.540Z,27.30
2018-12-20T00:03:08.428Z,25.80
2018-12-20T00:05:37.447Z,26.87
2018-12-20T00:08:06.451Z,26.13
2018-12-20T00:10:35.472Z,26.10
2018-12-20T00:13:04.308Z,25.83
2018-12-20T00:15:33.078Z,24.67
2018-12-20T00:18:01.847Z,26.00
2018-12-20T00:20:30.681Z,24.53
2018-12-20T00:22:59.468Z,25.23
2018-12-20T00:25:28.466Z,24.43
2018-12-20T00:27:57.286Z,25.10
2018-12-20T00:30:26.034Z,24.93
2018-12-20T00:32:54.897Z,24.43
2018-12-20T00:35:23.788Z,24.77
2018-12-20T00:37:52.553Z,25.27
2018-12-20T00:40:21.447Z,26.80
2018-12-20T00:42:50.342Z,38.10
2018-12-20T00:45:19.312Z,34.83
2018-12-20T00:47:48.389Z,35.53
2018-12-20T00:50:17.132Z,33.67
2018-12-20T00:52:46.177Z,27.40
2018-12-20T00:55:14.931Z,25.80
2018-12-20T00:57:43.638Z,24.53
2018-12-20T01:00:12.686Z,25.27
2018-12-20T01:02:41.406Z,24.50
2018-12-20T01:05:10.430Z,23.23
2018-12-20T01:07:39.443Z,23.90
2018-12-20T01:10:08.412Z,23.73
2018-12-20T01:12:37.605Z,24.37
2018-12-20T01:15:07.146Z,24.80
2018-12-20T01:17:38.844Z,23.90
2018-12-20T01:20:09.557Z,22.83
2018-12-20T01:22:38.437Z,23.57
2018-12-20T01:25:07.472Z,21.73
2018-12-20T01:27:36.313Z,22.70
2018-12-20T01:30:06.589Z,23.20
2018-12-20T01:32:35.473Z,23.40
2018-12-20T01:35:04.594Z,23.30
2018-12-20T01:37:33.337Z,23.30
2018-12-20T01:40:08.639Z,23.03
2018-12-20T01:42:37.452Z,23.63
2018-12-20T01:45:06.470Z,24.63
2018-12-20T01:47:35.298Z,24.17
2018-12-20T01:50:04.734Z,24.13
2018-12-20T01:52:33.600Z,22.23
2018-12-20T01:55:02.581Z,24.27
2018-12-20T01:57:31.442Z,24.27
2018-12-20T02:00:00.272Z,23.80
2018-12-20T02:02:29.326Z,25.47
2018-12-20T02:04:58.452Z,24.13
2018-12-20T02:07:27.408Z,24.13
2018-12-20T02:09:56.342Z,25.20
2018-12-20T02:12:25.207Z,25.40
2018-12-20T02:15:01.435Z,26.57
2018-12-20T02:17:24.915Z,26.67
2018-12-20T02:19:53.649Z,27.63
2018-12-20T02:22:22.460Z,31.80
2018-12-20T02:24:51.170Z,25.20
2018-12-20T02:27:20.006Z,26.03
2018-12-20T02:29:55.264Z,25.70
2018-12-20T02:32:24.201Z,25.83
2018-12-20T02:34:52.917Z,25.07
2018-12-20T02:37:21.959Z,26.73
2018-12-20T02:39:50.808Z,30.57
2018-12-20T02:42:19.531Z,31.87
2018-12-20T02:44:48.273Z,30.47
2018-12-20T02:47:17.194Z,29.97
2018-12-20T02:49:46.285Z,30.93
2018-12-20T02:52:15.185Z,28.20
2018-12-20T02:54:43.986Z,31.07
2018-12-20T02:57:12.796Z,28.17
2018-12-20T02:59:41.638Z,27.57
2018-12-20T03:02:10.455Z,28.03
2018-12-20T03:04:39.279Z,27.40
2018-12-20T03:07:08.120Z,26.23
2018-12-20T03:09:36.803Z,24.50
2018-12-20T03:12:05.473Z,26.63
2018-12-20T03:14:34.412Z,26.90
2018-12-20T03:17:03.218Z,25.00
2018-12-20T03:19:32.300Z,26.37
2018-12-20T03:22:01.052Z,26.33
2018-12-20T03:24:29.905Z,26.97
2018-12-20T03:26:58.813Z,32.87
2018-12-20T03:29:27.698Z,30.90
2018-12-20T03:32:02.757Z,28.40
2018-12-20T03:34:31.491Z,30.40
2018-12-20T03:37:00.248Z,29.20
2018-12-20T03:39:28.994Z,35.07
2018-12-20T03:41:57.680Z,34.53
2018-12-20T03:44:26.434Z,47.07
2018-12-20T03:46:55.205Z,44.10
2018-12-20T03:49:24.085Z,37.67
2018-12-20T03:51:52.896Z,27.77
2018-12-20T03:54:21.689Z,55.87
2018-12-20T03:56:50.436Z,28.07
2018-12-20T03:59:19.327Z,25.37
2018-12-20T04:01:48.265Z,30.50
2018-12-20T04:04:17.138Z,27.80
2018-12-20T04:06:46.134Z,31.90
2018-12-20T04:09:15.215Z,32.30
2018-12-20T04:11:44.294Z,30.73
2018-12-20T04:14:13.131Z,27.10
2018-12-20T04:16:42.191Z,25.07
2018-12-20T04:19:11.053Z,26.57
2018-12-20T04:21:39.806Z,28.50
2018-12-20T04:24:08.804Z,25.53
2018-12-20T04:26:37.648Z,27.60
2018-12-20T04:29:06.448Z,29.93
2018-12-20T04:31:35.160Z,34.17
2018-12-20T04:34:03.953Z,42.87
2018-12-20T04:36:32.903Z,36.33
2018-12-20T04:39:01.763Z,38.10
2018-12-20T04:41:30.731Z,216.33
2018-12-20T04:43:59.775Z,243.17
2018-12-20T04:46:28.812Z,212.27
2018-12-20T04:48:57.806Z,70.67
2018-12-20T04:51:26.633Z,43.10
2018-12-20T04:53:55.619Z,28.93
2018-12-20T04:56:24.610Z,26.30
2018-12-20T04:58:53.644Z,26.13
2018-12-20T05:01:22.524Z,24.70
2018-12-20T05:03:51.341Z,30.60
2018-12-20T05:06:20.070Z,24.37
2018-12-20T05:08:48.937Z,24.10
2018-12-20T05:11:17.714Z,25.63
2018-12-20T05:13:46.458Z,26.33
2018-12-20T05:16:18.065Z,27.43
2018-12-20T05:18:46.929Z,27.47
2018-12-20T05:21:15.871Z,39.97
2018-12-20T05:23:44.832Z,59.93
2018-12-20T05:26:13.710Z,67.50
2018-12-20T05:28:42.404Z,86.27
2018-12-20T05:31:11.262Z,31.40
2018-12-20T05:33:40.187Z,27.70
2018-12-20T05:36:09.112Z,29.53
2018-12-20T05:38:37.937Z,26.70
2018-12-20T05:41:06.726Z,54.87
2018-12-20T05:43:35.790Z,93.13
2018-12-20T05:46:04.785Z,36.43
2018-12-20T05:48:33.579Z,29.83
2018-12-20T05:51:02.290Z,34.40
2018-12-20T05:53:31.281Z,164.33
2018-12-20T05:56:00.223Z,109.93
2018-12-20T05:58:29.045Z,65.53
2018-12-20T06:00:57.940Z,43.53
2018-12-20T06:03:26.906Z,36.57
2018-12-20T06:05:55.856Z,44.63
2018-12-20T06:08:24.882Z,73.73
2018-12-20T06:10:53.563Z,40.13
2018-12-20T06:13:22.450Z,34.37
2018-12-20T06:15:51.273Z,29.50
2018-12-20T06:18:20.060Z,33.77
2018-12-20T06:20:48.882Z,36.43
2018-12-20T06:23:17.941Z,39.90
2018-12-20T06:25:46.907Z,27.30
2018-12-20T06:28:15.655Z,29.03
2018-12-20T06:30:44.460Z,29.07
2018-12-20T06:33:13.218Z,45.80
2018-12-20T06:35:41.967Z,34.07
2018-12-20T06:38:10.666Z,38.93
2018-12-20T06:40:39.395Z,38.10
2018-12-20T06:43:08.127Z,37.53
2018-12-20T06:45:36.965Z,35.30
2018-12-20T06:48:05.750Z,39.57
2018-12-20T06:50:34.458Z,37.60
2018-12-20T06:53:03.132Z,36.80
2018-12-20T06:55:31.911Z,32.97
2018-12-20T06:58:00.738Z,35.07
2018-12-20T07:00:29.431Z,37.37
2018-12-20T07:02:58.209Z,55.33
2018-12-20T07:05:26.920Z,58.50
2018-12-20T07:07:55.656Z,53.97
2018-12-20T07:10:24.414Z,60.63
2018-12-20T07:12:53.119Z,83.03
2018-12-20T07:15:21.919Z,83.73
2018-12-20T07:17:50.570Z,75.67
2018-12-20T07:20:19.423Z,51.77
2018-12-20T07:22:48.508Z,54.20
2018-12-20T07:25:17.197Z,47.47
2018-12-20T07:27:45.902Z,48.30
2018-12-20T07:30:14.730Z,47.93
2018-12-20T07:32:43.536Z,56.40
2018-12-20T07:35:12.296Z,48.93
2018-12-20T07:37:41.145Z,55.43
2018-12-20T07:40:10.772Z,58.07
2018-12-20T07:42:39.587Z,76.20
2018-12-20T07:45:09.193Z,97.37
2018-12-20T07:47:37.860Z,66.13
2018-12-20T07:50:08.486Z,61.57
2018-12-20T07:52:37.230Z,68.03
2018-12-20T07:55:06.474Z,88.07
2018-12-20T07:57:35.298Z,61.70
2018-12-20T08:00:04.893Z,48.57
2018-12-20T08:02:33.777Z,52.00
2018-12-20T08:05:02.519Z,55.77
2018-12-20T08:07:31.213Z,41.00
2018-12-20T08:09:59.900Z,41.27
2018-12-20T08:12:28.726Z,40.63
2018-12-20T08:14:57.527Z,39.10
2018-12-20T08:17:26.166Z,43.70
2018-12-20T08:19:54.875Z,38.97
2018-12-20T08:22:23.567Z,38.13
2018-12-20T08:24:52.360Z,45.03
2018-12-20T08:27:21.084Z,47.63
2018-12-20T08:29:50.873Z,48.77
2018-12-20T08:32:22.691Z,41.37
2018-12-20T08:34:51.388Z,45.17
2018-12-20T08:37:20.122Z,45.20
2018-12-20T08:39:48.821Z,48.77
2018-12-20T08:42:17.665Z,53.40
2018-12-20T08:44:46.544Z,55.30
2018-12-20T08:47:15.282Z,65.33
2018-12-20T08:49:43.962Z,56.43
2018-12-20T08:52:12.723Z,55.67
2018-12-20T08:54:41.463Z,56.80
2018-12-20T08:57:10.156Z,57.70
2018-12-20T08:59:38.938Z,58.70
2018-12-20T09:02:07.717Z,60.03
2018-12-20T09:04:36.493Z,58.30
2018-12-20T09:07:05.220Z,57.60
2018-12-20T09:09:34.214Z,64.37
2018-12-20T09:12:02.898Z,63.20
2018-12-20T09:14:31.546Z,59.73
2018-12-20T09:17:03.169Z,64.20
2018-12-20T09:19:31.102Z,60.33
2018-12-20T09:24:35.073Z,63.73
2018-12-20T09:27:03.894Z,70.07
2018-12-20T09:29:32.704Z,64.43
2018-12-20T09:32:01.635Z,64.47
2018-12-20T09:34:30.346Z,72.07
2018-12-20T09:36:59.146Z,57.67
2018-12-20T09:39:27.897Z,66.13
2018-12-20T09:41:56.623Z,59.53
2018-12-20T09:44:25.476Z,60.20
2018-12-20T09:46:58.258Z,63.03
2018-12-20T09:49:26.966Z,64.57
2018-12-20T09:51:55.685Z,72.17
2018-12-20T09:54:24.474Z,67.00
2018-12-20T09:56:53.258Z,65.20
2018-12-20T09:59:22.064Z,61.57
2018-12-20T10:01:50.833Z,63.43
2018-12-20T10:04:19.552Z,59.77
2018-12-20T10:06:48.340Z,59.30
2018-12-20T10:09:17.106Z,65.33
2018-12-20T10:11:45.849Z,57.50
2018-12-20T10:14:14.609Z,60.77
2018-12-20T10:16:43.475Z,73.47
2018-12-20T10:19:12.808Z,66.93
2018-12-20T10:21:41.587Z,73.20
2018-12-20T10:24:10.333Z,54.40
2018-12-20T10:26:39.032Z,53.27
2018-12-20T10:29:07.780Z,52.13
2018-12-20T10:31:36.434Z,63.10
2018-12-20T10:34:19.901Z,56.60
2018-12-20T10:36:48.709Z,46.97
2018-12-20T10:39:17.567Z,44.03
2018-12-20T10:41:46.266Z,55.87
2018-12-20T10:44:15.023Z,43.30
2018-12-20T10:46:44.164Z,44.40
2018-12-20T10:49:13.192Z,45.80
2018-12-20T10:51:41.849Z,58.60
2018-12-20T10:54:10.672Z,55.60
2018-12-20T10:56:39.425Z,48.50
2018-12-20T10:59:08.154Z,50.70
2018-12-20T11:01:42.165Z,58.50
2018-12-20T11:04:16.036Z,53.40
2018-12-20T11:06:49.949Z,49.30
2018-12-20T11:09:24.958Z,48.27
2018-12-20T11:11:59.066Z,51.93
2018-12-20T11:14:27.764Z,64.20
2018-12-20T11:16:56.548Z,50.60
2018-12-20T11:19:25.331Z,45.83
2018-12-20T11:21:54.090Z,51.00
2018-12-20T11:24:22.854Z,79.30
2018-12-20T11:26:51.702Z,40.00
2018-12-20T11:29:20.364Z,40.93
2018-12-20T11:31:49.182Z,41.37
2018-12-20T11:34:17.938Z,40.83
2018-12-20T11:36:46.675Z,42.33
2018-12-20T11:39:15.528Z,41.97
2018-12-20T11:41:44.198Z,42.53
2018-12-20T11:44:13.069Z,44.13
2018-12-20T11:46:41.731Z,43.47
2018-12-20T11:49:10.487Z,48.63
2018-12-20T11:51:39.263Z,47.83
2018-12-20T11:54:08.043Z,50.30
2018-12-20T11:56:36.830Z,50.43
2018-12-20T11:59:05.735Z,46.90
2018-12-20T12:01:34.491Z,51.63
2018-12-20T12:04:03.305Z,51.70
2018-12-20T12:06:32.094Z,47.03
2018-12-20T12:09:00.821Z,46.37
2018-12-20T12:11:29.658Z,52.70
2018-12-20T12:13:58.362Z,69.70
2018-12-20T12:16:27.183Z,50.23
2018-12-20T12:18:55.922Z,47.10
2018-12-20T12:21:24.698Z,47.13
2018-12-20T12:23:53.359Z,46.30
2018-12-20T12:26:22.183Z,45.20
2018-12-20T12:28:50.921Z,51.07
2018-12-20T12:31:19.710Z,54.60
2018-12-20T12:33:48.544Z,50.57
2018-12-20T12:36:18.227Z,47.00
2018-12-20T12:38:46.993Z,56.00
2018-12-20T12:41:15.720Z,52.60
2018-12-20T12:43:44.513Z,46.13
2018-12-20T12:46:13.215Z,42.60
2018-12-20T12:48:41.930Z,47.13
2018-12-20T12:51:10.717Z,46.27
2018-12-20T12:53:39.459Z,46.53
2018-12-20T12:56:08.352Z,47.07
2018-12-20T12:58:37.136Z,46.27
2018-12-20T13:01:05.821Z,44.57
2018-12-20T13:03:34.612Z,47.10
2018-12-20T13:06:03.441Z,45.63
2018-12-20T13:08:32.200Z,52.43
2018-12-20T13:11:00.973Z,53.27
2018-12-20T13:13:29.769Z,49.27
2018-12-20T13:15:58.566Z,46.27
2018-12-20T13:18:27.538Z,47.40
2018-12-20T13:20:56.428Z,49.53
2018-12-20T13:23:25.719Z,47.33
2018-12-20T13:25:54.634Z,49.37
2018-12-20T13:28:23.309Z,51.10
2018-12-20T13:30:52.122Z,53.00
2018-12-20T13:33:20.802Z,52.27
2018-12-20T13:35:49.637Z,47.13
2018-12-20T13:38:18.276Z,56.07
2018-12-20T13:40:47.075Z,54.43
2018-12-20T13:43:15.893Z,52.50
2018-12-20T13:45:44.730Z,49.83
2018-12-20T13:48:22.029Z,50.33
2018-12-20T13:50:45.167Z,49.00
2018-12-20T13:53:13.861Z,62.47
2018-12-20T13:55:42.702Z,51.53
2018-12-20T13:58:11.436Z,48.43
2018-12-20T14:00:40.135Z,50.77
2018-12-20T14:03:08.894Z,51.13
2018-12-20T14:05:37.655Z,48.60
2018-12-20T14:08:06.435Z,50.17
2018-12-20T14:10:36.018Z,48.83
2018-12-20T14:13:04.731Z,49.03
2018-12-20T14:15:33.500Z,46.80
2018-12-20T14:18:02.161Z,48.27
2018-12-20T14:20:30.927Z,48.00
2018-12-20T14:22:59.677Z,47.20
2018-12-20T14:25:28.346Z,47.67
2018-12-20T14:27:58.097Z,47.87
2018-12-20T14:30:26.808Z,52.50
2018-12-20T14:32:55.484Z,50.63
2018-12-20T14:35:24.248Z,48.73
2018-12-20T14:37:53.040Z,49.00
2018-12-20T14:40:22.025Z,49.30
2018-12-20T14:42:50.725Z,44.63
2018-12-20T14:45:19.410Z,46.50
2018-12-20T14:47:48.141Z,47.20
2018-12-20T14:50:16.916Z,49.17
2018-12-20T14:52:45.601Z,52.90
2018-12-20T14:55:14.361Z,54.40
2018-12-20T14:57:43.075Z,54.43
2018-12-20T15:00:12.787Z,51.83
2018-12-20T15:02:41.570Z,49.73
2018-12-20T15:05:10.419Z,48.43
2018-12-20T15:07:39.190Z,48.27
2018-12-20T15:10:09.852Z,65.43
2018-12-20T15:12:38.677Z,52.53
2018-12-20T15:15:09.246Z,51.20
2018-12-20T15:17:38.101Z,54.60
2018-12-20T15:20:08.429Z,55.30
2018-12-20T15:22:43.812Z,51.50
2018-12-20T15:25:12.596Z,47.70
2018-12-20T15:27:41.314Z,54.70
2018-12-20T15:30:11.319Z,63.87
2018-12-20T15:32:40.187Z,57.40
2018-12-20T15:35:08.954Z,62.63
2018-12-20T15:37:37.680Z,55.27
2018-12-20T15:40:08.265Z,54.07
2018-12-20T15:42:37.184Z,47.47
2018-12-20T15:45:07.110Z,49.97
2018-12-20T15:47:35.856Z,48.93
2018-12-20T15:50:04.857Z,51.10
2018-12-20T15:52:33.562Z,63.40
2018-12-20T15:55:02.392Z,59.73
2018-12-20T15:57:31.102Z,57.43
2018-12-20T15:59:59.799Z,60.07
2018-12-20T16:02:28.605Z,60.43
2018-12-20T16:04:57.404Z,65.73
2018-12-20T16:07:26.179Z,62.03
2018-12-20T16:09:55.003Z,62.40
2018-12-20T16:12:23.761Z,58.77
2018-12-20T16:14:52.643Z,54.77
2018-12-20T16:17:21.415Z,57.93
2018-12-20T16:19:50.257Z,66.93
2018-12-20T16:22:19.107Z,66.17
2018-12-20T16:24:47.801Z,62.17
2018-12-20T16:27:16.544Z,64.00
2018-12-20T16:29:45.352Z,66.10
2018-12-20T16:32:14.154Z,74.87
2018-12-20T16:34:42.960Z,67.40
2018-12-20T16:37:12.872Z,61.23
2018-12-20T16:39:42.551Z,57.47
2018-12-20T16:42:12.691Z,71.17
2018-12-20T16:44:41.675Z,78.40
2018-12-20T16:47:10.463Z,56.43
2018-12-20T16:49:39.301Z,60.10
2018-12-20T16:52:08.016Z,66.67
2018-12-20T16:54:36.843Z,59.40
2018-12-20T16:57:05.658Z,54.73
2018-12-20T16:59:34.403Z,53.70
2018-12-20T17:02:03.168Z,55.80
2018-12-20T17:04:31.827Z,58.90
2018-12-20T17:07:00.558Z,57.07
2018-12-20T17:09:29.305Z,55.93
2018-12-20T17:11:58.134Z,54.73
2018-12-20T17:14:26.993Z,58.00
2018-12-20T17:16:55.686Z,53.80
2018-12-20T17:19:24.605Z,49.30
2018-12-20T17:21:53.397Z,56.60
2018-12-20T17:24:22.171Z,78.83
2018-12-20T17:26:51.883Z,60.67
2018-12-20T17:29:20.614Z,56.03
2018-12-20T17:31:50.377Z,47.83
2018-12-20T17:34:19.202Z,50.67
2018-12-20T17:36:48.001Z,50.27
2018-12-20T17:39:16.857Z,50.10
2018-12-20T17:41:45.589Z,52.13
2018-12-20T17:44:14.317Z,51.13
2018-12-20T17:46:43.706Z,50.83
2018-12-20T17:49:12.437Z,53.70
2018-12-20T17:51:41.294Z,59.67
2018-12-20T17:54:10.811Z,55.57
2018-12-20T17:56:39.689Z,49.07
2018-12-20T17:59:09.213Z,50.50
2018-12-20T18:01:40.165Z,51.07
2018-12-20T18:04:09.454Z,78.70
2018-12-20T18:06:38.524Z,117.00
2018-12-20T18:09:09.111Z,95.37
2018-12-20T18:11:37.948Z,69.50
2018-12-20T18:14:06.606Z,93.30
2018-12-20T18:16:35.382Z,66.57
2018-12-20T18:19:04.323Z,61.17
2018-12-20T18:21:32.997Z,52.37
2018-12-20T18:24:02.028Z,54.17
2018-12-20T18:26:30.668Z,51.03
2018-12-20T18:28:59.777Z,51.43
2018-12-20T18:31:28.556Z,55.20
2018-12-20T18:33:57.334Z,48.07
2018-12-20T18:36:26.249Z,53.93
2018-12-20T18:38:54.958Z,48.90
2018-12-20T18:41:23.747Z,48.47
2018-12-20T18:43:52.485Z,47.13
2018-12-20T18:46:21.257Z,49.73
2018-12-20T18:48:49.983Z,49.57
2018-12-20T18:51:19.675Z,53.20
2018-12-20T18:53:48.453Z,49.97
2018-12-20T18:56:17.201Z,51.10
2018-12-20T18:58:46.035Z,49.63
2018-12-20T19:01:15.000Z,48.30
2018-12-20T19:03:43.849Z,50.20
2018-12-20T19:06:12.746Z,52.07
2018-12-20T19:08:41.488Z,47.60
2018-12-20T19:11:10.322Z,52.07
2018-12-20T19:13:39.078Z,76.87
2018-12-20T19:16:07.897Z,57.13
2018-12-20T19:18:36.646Z,55.23
2018-12-20T19:21:05.638Z,54.40
2018-12-20T19:23:35.900Z,55.77
2018-12-20T19:26:05.248Z,56.27
2018-12-20T19:28:34.031Z,60.50
2018-12-20T19:31:02.700Z,53.37
2018-12-20T19:33:31.550Z,51.87
2018-12-20T19:36:00.216Z,51.80
2018-12-20T19:38:29.028Z,50.47
2018-12-20T19:40:57.934Z,52.93
2018-12-20T19:43:26.713Z,53.93
2018-12-20T19:46:09.918Z,51.70
2018-12-20T19:48:38.570Z,54.77
2018-12-20T19:51:07.296Z,51.73
2018-12-20T19:53:36.028Z,52.33
2018-12-20T19:56:04.739Z,53.80
2018-12-20T19:58:33.619Z,51.30
2018-12-20T20:01:02.407Z,52.47
2018-12-20T20:03:31.142Z,56.40
2018-12-20T20:05:59.907Z,54.83
2018-12-20T20:08:28.645Z,55.07
2018-12-20T20:10:57.417Z,55.27
2018-12-20T20:13:30.714Z,54.93
2018-12-20T20:15:56.878Z,53.50
2018-12-20T20:18:25.624Z,54.57
2018-12-20T20:20:54.549Z,47.07
2018-12-20T20:23:23.207Z,47.20
2018-12-20T20:25:51.968Z,42.67
2018-12-20T20:28:20.682Z,46.97
2018-12-20T20:30:49.499Z,49.67
2018-12-20T20:33:18.208Z,54.37
2018-12-20T20:35:46.903Z,52.97
2018-12-20T20:38:15.552Z,48.00
2018-12-20T20:40:44.440Z,53.33
2018-12-20T20:43:13.141Z,50.83
2018-12-20T20:45:41.796Z,49.77
2018-12-20T20:48:10.701Z,54.23
2018-12-20T20:50:39.490Z,50.47
2018-12-20T20:53:08.519Z,51.97
2018-12-20T20:55:37.340Z,53.43
2018-12-20T20:58:06.054Z,52.50
2018-12-20T21:00:34.840Z,53.77
2018-12-20T21:03:03.581Z,51.80
2018-12-20T21:05:33.235Z,50.13
2018-12-20T21:08:01.923Z,50.07
2018-12-20T21:10:30.658Z,54.97
2018-12-20T21:12:59.367Z,58.50
2018-12-20T21:15:28.124Z,56.07
2018-12-20T21:17:56.842Z,55.30
2018-12-20T21:20:30.673Z,55.10
2018-12-20T21:22:56.362Z,57.37
2018-12-20T21:25:25.230Z,58.57
2018-12-20T21:27:53.871Z,61.30
2018-12-20T21:30:22.696Z,58.83
2018-12-20T21:32:51.440Z,58.70
2018-12-20T21:35:20.776Z,78.60
2018-12-20T21:37:49.489Z,61.67
2018-12-20T21:40:18.773Z,57.27
2018-12-20T21:42:47.810Z,57.13
2018-12-20T21:45:16.574Z,58.50
2018-12-20T21:47:45.330Z,59.53
2018-12-20T21:50:14.031Z,62.63
2018-12-20T21:52:42.784Z,58.67
2018-12-20T21:55:11.739Z,56.40
2018-12-20T21:57:40.552Z,56.60
2018-12-20T22:00:11.040Z,61.60
2018-12-20T22:02:39.958Z,56.00
2018-12-20T22:05:08.981Z,70.97
2018-12-20T22:07:38.472Z,64.17
2018-12-20T22:10:08.262Z,67.13
2018-12-20T22:12:37.095Z,60.63
2018-12-20T22:15:06.140Z,57.67
2018-12-20T22:17:34.878Z,54.93
2018-12-20T22:20:03.757Z,54.33
2018-12-20T22:22:32.567Z,53.43
2018-12-20T22:25:01.278Z,51.50
2018-12-20T22:27:29.954Z,53.30
2018-12-20T22:29:58.725Z,55.40
2018-12-20T22:32:27.554Z,56.53
2018-12-20T22:34:56.254Z,56.23
2018-12-20T22:37:25.007Z,54.20
2018-12-20T22:39:53.714Z,54.60
2018-12-20T22:42:22.560Z,53.33
2018-12-20T22:44:51.250Z,53.40
2018-12-20T22:47:19.954Z,50.53
2018-12-20T22:49:48.695Z,51.20
2018-12-20T22:52:17.460Z,52.63
2018-12-20T22:54:46.232Z,52.53
2018-12-20T22:57:15.043Z,53.47
2018-12-20T22:59:43.790Z,57.37
2018-12-20T23:02:18.033Z,58.37
2018-12-20T23:04:43.394Z,57.23
2018-12-20T23:07:12.221Z,59.73
2018-12-20T23:09:40.970Z,59.10
2018-12-20T23:12:09.703Z,55.30
2018-12-20T23:14:38.341Z,56.00
2018-12-20T23:17:07.135Z,57.60
2018-12-20T23:19:35.858Z,56.13
2018-12-20T23:22:04.839Z,56.93
2018-12-20T23:24:33.667Z,54.30
2018-12-20T23:27:02.417Z,56.80
2018-12-20T23:29:31.178Z,56.13
2018-12-20T23:31:59.896Z,56.13
2018-12-20T23:34:28.527Z,54.27
2018-12-20T23:36:57.301Z,53.83
2018-12-20T23:39:26.116Z,53.50
2018-12-20T23:41:54.853Z,50.80
2018-12-20T23:44:23.618Z,54.70
2018-12-20T23:46:52.432Z,56.00
2018-12-20T23:49:21.300Z,56.93
2018-12-20T23:51:50.083Z,54.10
2018-12-20T23:54:18.847Z,55.03
2018-12-20T23:56:47.653Z,53.93
2018-12-20T23:59:16.353Z,55.93
